Time;durP1;ratioP1;P1;durP2;ratioP2;P2;SDS_P1;SDS_P2;PMS_P1;PMS_P2;Temp;Humidity;BMP_temperature;BMP_pressure;BME280_temperature;BME280_humidity;BME280_pressure;Samples;Min_cycle;Max_cycle;Signal;HPM_P1;HPM_P2
2023/09/24 00:01:38;;;;;;;;;;;;;;;;;;5025860;28;20417;-61
2023/09/24 00:04:04;;;;;;;;;;;;;;;;;;5019349;28;20407;-61
2023/09/24 00:06:30;;;;;;;;;;;;;;;;;;5019714;28;19936;-59
2023/09/24 00:08:56;;;;;;;;;;;;;;;;;;5023088;28;19948;-59
2023/09/24 00:11:22;;;;;;;;;;;;;;;;;;5022583;28;20567;-60
2023/09/24 00:13:48;;;;;;;;;;;;;;;;;;5022525;28;19921;-61
2023/09/24 00:16:14;;;;;;;;;;;;;;;;;;5023595;28;19928;-61
2023/09/24 00:18:40;;;;;;;;;;;;;;;;;;5026904;28;19930;-60
2023/09/24 00:21:06;;;;;;;;;;;;;;;;;;5022132;28;19925;-60
2023/09/24 00:23:32;;;;;;;;;;;;;;;;;;5004237;28;20335;-61
2023/09/24 00:25:58;;;;;;;;;;;;;;;;;;5018757;28;19929;-61
2023/09/24 00:28:24;;;;;;;;;;;;;;;;;;5023356;28;19929;-61
2023/09/24 00:30:51;;;;;;;;;;;;;;;;;;5027240;28;19922;-61
2023/09/24 00:33:18;;;;;;;;;;;;;;;;;;5026238;28;20019;-60
2023/09/24 00:35:44;;;;;;;;;;;;;;;;;;5026089;28;19927;-60
2023/09/24 00:38:10;;;;;;;;;;;;;;;;;;5030415;28;20407;-60
2023/09/24 00:40:36;;;;;;;;;;;;;;;;;;5031780;28;20313;-60
2023/09/24 00:43:02;;;;;;;;;;;;;;;;;;5028280;28;19931;-60
2023/09/24 00:45:28;;;;;;;;;;;;;;;;;;5029508;28;19925;-61
2023/09/24 00:47:54;;;;;;;;;;;;;;;;;;5023472;28;19932;-61
2023/09/24 00:50:21;;;;;;;;;;;;;;;;;;5030248;28;19925;-61
2023/09/24 00:52:47;;;;;;;;;;;;;;;;;;5029132;28;19924;-59
2023/09/24 00:55:13;;;;;;;;;;;;;;;;;;5033371;28;20298;-60
2023/09/24 00:57:39;;;;;;;;;;;;;;;;;;5025618;28;20012;-60
2023/09/24 01:00:11;;;;;;;;;;;;;;;;;;5024724;28;20008;-60
2023/09/24 01:02:37;;;;;;;;;;;;;;;;;;5026138;28;19929;-61
2023/09/24 01:05:03;;;;;;;;;;;;;;;;;;5026932;28;19925;-61
2023/09/24 01:07:31;;;;;;;;;;;;;;;;;;5026673;28;20015;-61
2023/09/24 01:09:57;;;;;;;;;;;;;;;;;;5029651;28;20026;-61
2023/09/24 01:12:23;;;;;;;;;;;;;;;;;;5031675;28;20004;-61
2023/09/24 01:14:49;;;;;;;;;;;;;;;;;;5029959;28;19931;-61
2023/09/24 01:17:15;;;;;;;;;;;;;;;;;;5030030;28;19928;-60
2023/09/24 01:19:41;;;;;;;;;;;;;;;;;;5028752;28;19921;-60
2023/09/24 01:22:07;;;;;;;;;;;;;;;;;;5022602;28;19928;-60
2023/09/24 01:24:33;;;;;;;;;;;;;;;;;;5030671;28;20358;-60
2023/09/24 01:26:59;;;;;;;;;;;;;;;;;;5026481;28;19965;-60
2023/09/24 01:29:26;;;;;;;;;;;;;;;;;;5022766;28;19939;-60
2023/09/24 01:31:52;;;;;;;;;;;;;;;;;;5019536;28;19921;-61
2023/09/24 01:34:19;;;;;;;;;;;;;;;;;;5022055;28;19999;-61
2023/09/24 01:36:45;;;;;;;;;;;;;;;;;;5027746;28;19957;-60
2023/09/24 01:39:15;;;;;;;;;;;;;;;;;;5021347;28;19926;-61
2023/09/24 01:41:41;;;;;;;;;;;;;;;;;;5025163;28;19965;-61
2023/09/24 01:44:07;;;;;;;;;;;;;;;;;;5032199;28;19967;-61
2023/09/24 01:46:33;;;;;;;;;;;;;;;;;;5018570;28;19984;-60
2023/09/24 01:49:00;;;;;;;;;;;;;;;;;;5027240;28;19933;-61
2023/09/24 01:51:26;;;;;;;;;;;;;;;;;;5021176;28;20371;-60
2023/09/24 01:53:52;;;;;;;;;;;;;;;;;;5034484;28;19925;-60
2023/09/24 01:56:20;;;;;;;;;;;;;;;;;;5023861;28;20016;-61
2023/09/24 01:58:46;;;;;;;;;;;;;;;;;;5027564;28;19928;-61
2023/09/24 02:01:12;;;;;;;;;;;;;;;;;;5025482;28;19921;-61
2023/09/24 02:03:39;;;;;;;;;;;;;;;;;;5030253;28;19979;-61
2023/09/24 02:06:06;;;;;;;;;;;;;;;;;;5023784;28;19950;-61
2023/09/24 02:08:32;;;;;;;;;;;;;;;;;;5025254;28;19929;-60
2023/09/24 02:10:59;;;;;;;;;;;;;;;;;;5026063;28;20044;-60
2023/09/24 02:13:25;;;;;;;;;;;;;;;;;;5026483;28;19961;-60
2023/09/24 02:15:50;;;;;;;;;;;;;;;;;;5023785;28;19961;-60
2023/09/24 02:18:17;;;;;;;;;;;;;;;;;;5024447;28;20007;-60
2023/09/24 02:20:47;;;;;;;;;;;;;;;;;;5023341;28;19934;-60
2023/09/24 02:23:13;;;;;;;;;;;;;;;;;;5021887;28;19929;-61
2023/09/24 02:25:38;;;;;;;;;;;;;;;;;;5025697;28;20333;-61
2023/09/24 02:28:04;;;;;;;;;;;;;;;;;;5026811;28;19974;-60
2023/09/24 02:30:31;;;;;;;;;;;;;;;;;;5025092;28;20043;-61
2023/09/24 02:32:57;;;;;;;;;;;;;;;;;;5025626;28;21519;-62
2023/09/24 02:35:23;;;;;;;;;;;;;;;;;;5021998;28;19922;-60
2023/09/24 02:37:52;;;;;;;;;;;;;;;;;;5026301;28;19925;-61
2023/09/24 02:40:22;;;;;;;;;;;;;;;;;;5028435;28;19968;-61
2023/09/24 02:42:48;;;;;;;;;;;;;;;;;;5022638;28;20405;-61
2023/09/24 02:45:15;;;;;;;;;;;;;;;;;;5028132;28;19925;-59
2023/09/24 02:47:41;;;;;;;;;;;;;;;;;;5023143;28;20255;-60
2023/09/24 02:50:13;;;;;;;;;;;;;;;;;;5031905;28;19929;-60
2023/09/24 02:52:39;;;;;;;;;;;;;;;;;;5027138;28;19935;-60
2023/09/24 02:55:05;;;;;;;;;;;;;;;;;;5020551;28;19921;-61
2023/09/24 02:57:32;;;;;;;;;;;;;;;;;;5023855;28;19925;-59
2023/09/24 02:59:58;;;;;;;;;;;;;;;;;;5023279;28;19932;-61
2023/09/24 03:02:27;;;;;;;;;;;;;;;;;;5006604;28;20019;-61
2023/09/24 03:04:53;;;;;;;;;;;;;;;;;;5020561;28;20015;-60
2023/09/24 03:07:19;;;;;;;;;;;;;;;;;;5023668;28;20063;-60
2023/09/24 03:09:45;;;;;;;;;;;;;;;;;;5019434;28;20279;-61
2023/09/24 03:12:12;;;;;;;;;;;;;;;;;;5000384;28;19929;-61
2023/09/24 03:14:38;;;;;;;;;;;;;;;;;;5024282;28;19921;-61
2023/09/24 03:17:05;;;;;;;;;;;;;;;;;;5021193;28;19921;-60
2023/09/24 03:19:31;;;;;;;;;;;;;;;;;;5019894;28;20020;-61
2023/09/24 03:21:57;;;;;;;;;;;;;;;;;;5025010;28;20414;-61
2023/09/24 03:24:23;;;;;;;;;;;;;;;;;;5021559;28;19921;-61
2023/09/24 03:26:49;;;;;;;;;;;;;;;;;;5017325;28;19936;-61
2023/09/24 03:29:15;;;;;;;;;;;;;;;;;;5024018;28;20020;-64
2023/09/24 03:31:42;;;;;;;;;;;;;;;;;;5022531;28;19929;-60
2023/09/24 03:34:07;;;;;;;;;;;;;;;;;;5021610;28;19925;-61
2023/09/24 03:36:33;;;;;;;;;;;;;;;;;;4995827;28;19921;-61
2023/09/24 03:38:59;;;;;;;;;;;;;;;;;;5025710;28;20347;-61
2023/09/24 03:41:25;;;;;;;;;;;;;;;;;;5027867;28;19965;-61
2023/09/24 03:43:51;;;;;;;;;;;;;;;;;;5025312;28;19965;-61
2023/09/24 03:46:17;;;;;;;;;;;;;;;;;;5022917;28;19921;-61
2023/09/24 03:48:43;;;;;;;;;;;;;;;;;;5019866;28;20008;-61
2023/09/24 03:51:10;;;;;;;;;;;;;;;;;;5033225;28;19975;-60
2023/09/24 03:53:36;;;;;;;;;;;;;;;;;;5030393;28;19921;-61
2023/09/24 03:56:04;;;;;;;;;;;;;;;;;;5029810;28;19933;-61
2023/09/24 03:58:30;;;;;;;;;;;;;;;;;;5022797;28;19975;-61
2023/09/24 04:00:56;;;;;;;;;;;;;;;;;;5019659;28;19928;-60
2023/09/24 04:03:22;;;;;;;;;;;;;;;;;;5027672;28;20302;-60
2023/09/24 04:05:48;;;;;;;;;;;;;;;;;;5024891;28;19926;-60
2023/09/24 04:08:14;;;;;;;;;;;;;;;;;;5025482;28;19925;-61
2023/09/24 04:10:40;;;;;;;;;;;;;;;;;;5026065;28;19932;-61
2023/09/24 04:13:06;;;;;;;;;;;;;;;;;;5028779;28;20317;-61
2023/09/24 04:15:32;;;;;;;;;;;;;;;;;;5023337;28;19921;-61
2023/09/24 04:17:57;;;;;;;;;;;;;;;;;;5028950;28;19956;-61
2023/09/24 04:20:25;;;;;;;;;;;;;;;;;;5025480;28;19925;-61
2023/09/24 04:22:51;;;;;;;;;;;;;;;;;;5025119;28;19932;-61
2023/09/24 04:25:20;;;;;;;;;;;;;;;;;;5023811;28;19925;-60
2023/09/24 04:27:46;;;;;;;;;;;;;;;;;;5028086;28;20047;-61
2023/09/24 04:30:16;;;;;;;;;;;;;;;;;;5018687;28;19937;-61
2023/09/24 04:32:42;;;;;;;;;;;;;;;;;;5020168;28;20004;-61
2023/09/24 04:35:11;;;;;;;;;;;;;;;;;;5020804;28;20012;-60
2023/09/24 04:37:39;;;;;;;;;;;;;;;;;;5025825;28;20024;-60
2023/09/24 04:40:05;;;;;;;;;;;;;;;;;;5024768;28;19921;-60
2023/09/24 04:42:31;;;;;;;;;;;;;;;;;;5024909;28;19983;-60
2023/09/24 04:44:57;;;;;;;;;;;;;;;;;;5027491;28;19921;-60
2023/09/24 04:47:23;;;;;;;;;;;;;;;;;;5023885;28;19921;-61
2023/09/24 04:49:49;;;;;;;;;;;;;;;;;;5027752;28;20393;-59
2023/09/24 04:52:15;;;;;;;;;;;;;;;;;;5030009;28;20343;-61
2023/09/24 04:54:41;;;;;;;;;;;;;;;;;;5026104;28;19952;-61
2023/09/24 04:57:09;;;;;;;;;;;;;;;;;;5029407;28;19929;-61
2023/09/24 04:59:35;;;;;;;;;;;;;;;;;;5025212;28;19932;-61
2023/09/24 05:02:01;;;;;;;;;;;;;;;;;;5016846;28;19925;-60
2023/09/24 05:04:27;;;;;;;;;;;;;;;;;;5026775;28;19921;-61
2023/09/24 05:06:54;;;;;;;;;;;;;;;;;;5015253;28;19931;-61
2023/09/24 05:09:21;;;;;;;;;;;;;;;;;;5025044;28;19930;-60
2023/09/24 05:11:47;;;;;;;;;;;;;;;;;;5020915;28;19921;-61
2023/09/24 05:14:13;;;;;;;;;;;;;;;;;;5021100;28;19933;-61
2023/09/24 05:16:39;;;;;;;;;;;;;;;;;;5022117;28;19922;-61
2023/09/24 05:19:05;;;;;;;;;;;;;;;;;;5028932;28;19925;-61
2023/09/24 05:21:31;;;;;;;;;;;;;;;;;;5025023;28;20493;-62
2023/09/24 05:23:57;;;;;;;;;;;;;;;;;;5021712;28;19931;-60
2023/09/24 05:26:23;;;;;;;;;;;;;;;;;;5027152;28;19921;-60
2023/09/24 05:28:49;;;;;;;;;;;;;;;;;;5024788;28;20511;-60
2023/09/24 05:31:18;;;;;;;;;;;;;;;;;;5027443;28;19925;-60
2023/09/24 05:33:44;;;;;;;;;;;;;;;;;;5021703;28;19979;-60
2023/09/24 05:36:10;;;;;;;;;;;;;;;;;;5025855;28;19921;-60
2023/09/24 05:38:36;;;;;;;;;;;;;;;;;;5020967;28;19932;-60
2023/09/24 05:41:02;;;;;;;;;;;;;;;;;;5022520;28;19967;-60
2023/09/24 05:43:28;;;;;;;;;;;;;;;;;;5022393;28;19986;-62
2023/09/24 05:45:54;;;;;;;;;;;;;;;;;;5024273;28;19921;-60
2023/09/24 05:48:20;;;;;;;;;;;;;;;;;;5020938;28;19936;-60
2023/09/24 05:50:46;;;;;;;;;;;;;;;;;;5020757;28;20413;-61
2023/09/24 05:53:12;;;;;;;;;;;;;;;;;;5022863;28;19995;-61
2023/09/24 05:55:38;;;;;;;;;;;;;;;;;;5026528;28;19929;-61
2023/09/24 05:58:04;;;;;;;;;;;;;;;;;;5027966;28;19932;-61
2023/09/24 06:00:31;;;;;;;;;;;;;;;;;;5018137;28;19972;-61
2023/09/24 06:02:57;;;;;;;;;;;;;;;;;;5025804;28;20331;-61
2023/09/24 06:05:23;;;;;;;;;;;;;;;;;;5022140;28;19936;-61
2023/09/24 06:07:49;;;;;;;;;;;;;;;;;;5023878;28;19928;-61
2023/09/24 06:10:15;;;;;;;;;;;;;;;;;;5014565;28;20361;-61
2023/09/24 06:12:40;;;;;;;;;;;;;;;;;;5023297;28;19925;-61
2023/09/24 06:15:07;;;;;;;;;;;;;;;;;;5023412;28;19922;-62
2023/09/24 06:17:33;;;;;;;;;;;;;;;;;;5021330;28;19929;-61
2023/09/24 06:19:59;;;;;;;;;;;;;;;;;;5022879;28;19951;-61
2023/09/24 06:22:25;;;;;;;;;;;;;;;;;;5023349;28;19959;-61
2023/09/24 06:24:51;;;;;;;;;;;;;;;;;;5017880;28;20042;-61
2023/09/24 06:27:19;;;;;;;;;;;;;;;;;;5025817;28;20000;-61
2023/09/24 06:29:44;;;;;;;;;;;;;;;;;;5023222;28;19933;-61
2023/09/24 06:32:10;;;;;;;;;;;;;;;;;;5026907;28;20044;-61
2023/09/24 06:34:37;;;;;;;;;;;;;;;;;;5007493;28;19936;-61
2023/09/24 06:37:04;;;;;;;;;;;;;;;;;;5018538;28;19921;-61
2023/09/24 06:39:30;;;;;;;;;;;;;;;;;;5030388;28;19932;-61
2023/09/24 06:41:56;;;;;;;;;;;;;;;;;;5027943;28;19921;-61
2023/09/24 06:44:22;;;;;;;;;;;;;;;;;;5029305;28;19964;-61
2023/09/24 06:46:48;;;;;;;;;;;;;;;;;;5029047;28;20385;-61
2023/09/24 06:49:14;;;;;;;;;;;;;;;;;;5027470;28;19936;-61
2023/09/24 06:51:40;;;;;;;;;;;;;;;;;;5028172;28;19928;-61
2023/09/24 06:54:06;;;;;;;;;;;;;;;;;;5031266;28;20573;-61
2023/09/24 06:56:32;;;;;;;;;;;;;;;;;;5032751;28;19929;-60
2023/09/24 06:58:58;;;;;;;;;;;;;;;;;;5025023;28;20266;-61
2023/09/24 07:01:23;;;;;;;;;;;;;;;;;;5030732;28;19928;-60
2023/09/24 07:03:51;;;;;;;;;;;;;;;;;;5007579;28;19921;-60
2023/09/24 07:06:17;;;;;;;;;;;;;;;;;;5032174;28;19927;-61
2023/09/24 07:08:43;;;;;;;;;;;;;;;;;;5026529;28;19933;-60
2023/09/24 07:11:10;;;;;;;;;;;;;;;;;;5032066;28;20386;-60
2023/09/24 07:13:36;;;;;;;;;;;;;;;;;;5029640;28;20012;-60
2023/09/24 07:16:05;;;;;;;;;;;;;;;;;;5031558;28;20011;-60
2023/09/24 07:18:31;;;;;;;;;;;;;;;;;;5020856;28;19928;-60
2023/09/24 07:20:57;;;;;;;;;;;;;;;;;;5028781;28;19921;-60
2023/09/24 07:23:23;;;;;;;;;;;;;;;;;;5031281;28;19925;-60
2023/09/24 07:25:49;;;;;;;;;;;;;;;;;;5028979;28;19925;-61
2023/09/24 07:28:15;;;;;;;;;;;;;;;;;;5030538;28;19929;-60
2023/09/24 07:30:41;;;;;;;;;;;;;;;;;;5028960;28;20370;-60
2023/09/24 07:33:08;;;;;;;;;;;;;;;;;;5030686;28;19922;-60
2023/09/24 07:35:34;;;;;;;;;;;;;;;;;;5025813;28;19952;-60
2023/09/24 07:38:00;;;;;;;;;;;;;;;;;;5028543;28;19963;-60
2023/09/24 07:40:25;;;;;;;;;;;;;;;;;;5028105;28;19924;-60
2023/09/24 07:42:51;;;;;;;;;;;;;;;;;;5032171;28;19927;-60
2023/09/24 07:45:18;;;;;;;;;;;;;;;;;;5028896;28;19975;-60
2023/09/24 07:47:44;;;;;;;;;;;;;;;;;;5031758;28;19932;-60
2023/09/24 07:50:10;;;;;;;;;;;;;;;;;;5026541;28;19936;-61
2023/09/24 07:52:36;;;;;;;;;;;;;;;;;;5035709;28;19921;-60
2023/09/24 07:55:02;;;;;;;;;;;;;;;;;;5027616;28;19971;-60
2023/09/24 07:57:28;;;;;;;;;;;;;;;;;;5014204;28;19933;-60
2023/09/24 07:59:54;;;;;;;;;;;;;;;;;;5021432;28;19921;-61
2023/09/24 08:02:20;;;;;;;;;;;;;;;;;;5026186;28;20310;-61
2023/09/24 08:04:46;;;;;;;;;;;;;;;;;;5007620;28;19932;-61
2023/09/24 08:07:12;;;;;;;;;;;;;;;;;;5027448;28;19921;-61
2023/09/24 08:09:40;;;;;;;;;;;;;;;;;;5025978;28;20438;-60
2023/09/24 08:12:06;;;;;;;;;;;;;;;;;;5022904;28;19925;-60
2023/09/24 08:14:33;;;;;;;;;;;;;;;;;;5028856;28;20589;-61
2023/09/24 08:16:59;;;;;;;;;;;;;;;;;;5004579;28;20015;-61
2023/09/24 08:19:30;;;;;;;;;;;;;;;;;;5025246;28;20051;-59
2023/09/24 08:21:56;;;;;;;;;;;;;;;;;;5026948;28;20414;-61
2023/09/24 08:24:22;;;;;;;;;;;;;;;;;;5029719;28;20098;-61
2023/09/24 08:26:48;;;;;;;;;;;;;;;;;;5018816;28;20023;-61
2023/09/24 08:29:14;;;;;;;;;;;;;;;;;;5030488;28;19929;-61
2023/09/24 08:31:40;;;;;;;;;;;;;;;;;;5025397;28;19929;-61
2023/09/24 08:34:06;;;;;;;;;;;;;;;;;;5007218;28;20486;-61
2023/09/24 08:36:32;;;;;;;;;;;;;;;;;;5026496;28;19995;-61
2023/09/24 08:38:58;;;;;;;;;;;;;;;;;;5026441;28;19929;-61
2023/09/24 08:41:24;;;;;;;;;;;;;;;;;;5025009;28;19925;-61
2023/09/24 08:43:50;;;;;;;;;;;;;;;;;;5018417;28;19925;-60
2023/09/24 08:46:16;;;;;;;;;;;;;;;;;;5024875;28;20375;-60
2023/09/24 08:48:43;;;;;;;;;;;;;;;;;;5020501;28;19925;-60
2023/09/24 08:51:09;;;;;;;;;;;;;;;;;;5023971;28;19936;-60
2023/09/24 08:53:35;;;;;;;;;;;;;;;;;;5037244;28;20054;-60
2023/09/24 08:56:01;;;;;;;;;;;;;;;;;;5027592;28;20035;-60
2023/09/24 08:58:28;;;;;;;;;;;;;;;;;;5026548;28;19928;-61
2023/09/24 09:00:54;;;;;;;;;;;;;;;;;;5030249;28;19944;-61
2023/09/24 09:03:20;;;;;;;;;;;;;;;;;;5023931;28;19925;-61
2023/09/24 09:05:47;;;;;;;;;;;;;;;;;;5028756;28;19927;-59
2023/09/24 09:08:13;;;;;;;;;;;;;;;;;;5033382;22;20437;-67
2023/09/24 09:10:39;;;;;;;;;;;;;;;;;;5013320;28;19932;-67
2023/09/24 09:13:05;;;;;;;;;;;;;;;;;;5012476;28;19921;-67
2023/09/24 09:15:32;;;;;;;;;;;;;;;;;;5010524;28;20311;-66
2023/09/24 09:17:58;;;;;;;;;;;;;;;;;;5014536;28;19921;-66
2023/09/24 09:20:23;;;;;;;;;;;;;;;;;;5006939;28;19921;-66
2023/09/24 09:22:49;;;;;;;;;;;;;;;;;;5005068;28;19995;-66
2023/09/24 09:25:15;;;;;;;;;;;;;;;;;;5013695;28;19926;-66
2023/09/24 09:27:46;;;;;;;;;;;;;;;;;;5007146;28;20405;-66
2023/09/24 09:30:13;;;;;;;;;;;;;;;;;;5008667;28;19996;-66
2023/09/24 09:32:39;;;;;;;;;;;;;;;;;;5006096;28;19929;-66
2023/09/24 09:35:05;;;;;;;;;;;;;;;;;;5008959;28;19971;-66
2023/09/24 09:37:31;;;;;;;;;;;;;;;;;;5011695;28;19925;-67
2023/09/24 09:39:57;;;;;;;;;;;;;;;;;;5005356;28;19932;-65
2023/09/24 09:42:24;;;;;;;;;;;;;;;;;;5009984;28;20390;-67
2023/09/24 09:44:50;;;;;;;;;;;;;;;;;;5018366;28;20283;-65
2023/09/24 09:47:17;;;;;;;;;;;;;;;;;;5012255;28;19932;-66
2023/09/24 09:49:43;;;;;;;;;;;;;;;;;;5010894;28;19968;-66
2023/09/24 09:52:08;;;;;;;;;;;;;;;;;;5012793;28;20351;-67
2023/09/24 09:54:35;;;;;;;;;;;;;;;;;;5014546;28;19932;-67
2023/09/24 09:57:01;;;;;;;;;;;;;;;;;;5006618;28;19955;-66
2023/09/24 09:59:27;;;;;;;;;;;;;;;;;;5002087;28;20351;-67
2023/09/24 10:01:53;;;;;;;;;;;;;;;;;;5003846;28;19929;-67
2023/09/24 10:04:19;;;;;;;;;;;;;;;;;;4985793;28;19940;-66
2023/09/24 10:06:45;;;;;;;;;;;;;;;;;;5010700;28;19937;-66
2023/09/24 10:09:13;;;;;;;;;;;;;;;;;;5005583;28;19932;-66
2023/09/24 10:11:40;;;;;;;;;;;;;;;;;;5004112;28;19953;-66
2023/09/24 10:14:08;;;;;;;;;;;;;;;;;;5001241;28;19930;-66
2023/09/24 10:16:35;;;;;;;;;;;;;;;;;;5001133;28;20003;-68
2023/09/24 10:19:02;;;;;;;;;;;;;;;;;;5006693;28;19922;-66
2023/09/24 10:21:30;;;;;;;;;;;;;;;;;;5007001;28;19932;-66
2023/09/24 10:23:56;;;;;;;;;;;;;;;;;;5010593;28;19971;-66
2023/09/24 10:26:21;;;;;;;;;;;;;;;;;;5009638;28;19999;-67
2023/09/24 10:28:47;;;;;;;;;;;;;;;;;;5010505;28;19922;-67
2023/09/24 10:31:13;;;;;;;;;;;;;;;;;;5005977;28;20256;-67
2023/09/24 10:33:39;;;;;;;;;;;;;;;;;;5006036;28;19929;-66
2023/09/24 10:36:06;;;;;;;;;;;;;;;;;;5005671;28;20410;-66
2023/09/24 10:38:31;;;;;;;;;;;;;;;;;;5009006;28;20283;-66
2023/09/24 10:40:57;;;;;;;;;;;;;;;;;;5009781;28;19922;-66
2023/09/24 10:43:23;;;;;;;;;;;;;;;;;;5013291;28;20066;-67
2023/09/24 10:45:49;;;;;;;;;;;;;;;;;;5011663;28;20283;-67
2023/09/24 10:48:16;;;;;;;;;;;;;;;;;;5010483;28;19933;-67
2023/09/24 10:50:43;;;;;;;;;;;;;;;;;;5009896;28;19922;-66
2023/09/24 10:53:09;;;;;;;;;;;;;;;;;;5009646;28;19925;-66
2023/09/24 10:55:36;;;;;;;;;;;;;;;;;;5009611;28;19936;-67
2023/09/24 10:58:02;;;;;;;;;;;;;;;;;;5007739;28;19921;-66
2023/09/24 11:00:28;;;;;;;;;;;;;;;;;;5010402;28;19933;-66
2023/09/24 11:02:54;;;;;;;;;;;;;;;;;;5006203;28;19975;-67
2023/09/24 11:05:20;;;;;;;;;;;;;;;;;;5010637;28;19928;-67
2023/09/24 11:07:48;;;;;;;;;;;;;;;;;;5010626;28;20221;-66
2023/09/24 11:10:14;;;;;;;;;;;;;;;;;;5012713;28;19932;-67
2023/09/24 11:12:39;;;;;;;;;;;;;;;;;;5006865;28;19929;-67
2023/09/24 11:15:05;;;;;;;;;;;;;;;;;;5009447;28;19925;-66
2023/09/24 11:17:32;;;;;;;;;;;;;;;;;;5008364;28;19976;-66
2023/09/24 11:19:59;;;;;;;;;;;;;;;;;;5011840;28;19926;-67
2023/09/24 11:22:25;;;;;;;;;;;;;;;;;;5010224;28;19926;-67
2023/09/24 11:24:52;;;;;;;;;;;;;;;;;;5010807;28;20011;-67
2023/09/24 11:27:18;;;;;;;;;;;;;;;;;;5011326;28;19929;-66
2023/09/24 11:29:44;;;;;;;;;;;;;;;;;;5007493;28;19983;-66
2023/09/24 11:32:10;;;;;;;;;;;;;;;;;;5003921;28;20323;-66
2023/09/24 11:34:36;;;;;;;;;;;;;;;;;;5008400;28;19957;-66
2023/09/24 11:37:02;;;;;;;;;;;;;;;;;;4991391;28;20264;-67
2023/09/24 11:39:28;;;;;;;;;;;;;;;;;;5004842;28;19922;-67
2023/09/24 11:41:56;;;;;;;;;;;;;;;;;;5007939;28;19936;-66
2023/09/24 11:44:22;;;;;;;;;;;;;;;;;;5009224;28;20519;-66
2023/09/24 11:46:48;;;;;;;;;;;;;;;;;;5010969;28;19972;-66
2023/09/24 11:49:14;;;;;;;;;;;;;;;;;;5012326;28;19926;-66
2023/09/24 11:51:40;;;;;;;;;;;;;;;;;;5004095;28;19929;-66
2023/09/24 11:54:06;;;;;;;;;;;;;;;;;;5011199;28;19951;-66
2023/09/24 11:56:32;;;;;;;;;;;;;;;;;;4989178;28;20375;-66
2023/09/24 11:58:59;;;;;;;;;;;;;;;;;;5010532;28;19932;-67
2023/09/24 12:01:25;;;;;;;;;;;;;;;;;;5003837;28;19930;-66
2023/09/24 12:03:53;;;;;;;;;;;;;;;;;;5008609;28;19975;-67
2023/09/24 12:06:19;;;;;;;;;;;;;;;;;;5003753;28;19929;-66
2023/09/24 12:08:45;;;;;;;;;;;;;;;;;;5007892;28;19956;-68
2023/09/24 12:11:11;;;;;;;;;;;;;;;;;;5006397;28;20032;-66
2023/09/24 12:13:37;;;;;;;;;;;;;;;;;;5000499;28;19965;-67
2023/09/24 12:16:03;;;;;;;;;;;;;;;;;;5007418;28;19971;-66
2023/09/24 12:18:29;;;;;;;;;;;;;;;;;;5002036;28;20414;-66
2023/09/24 12:20:56;;;;;;;;;;;;;;;;;;5006175;28;19925;-66
2023/09/24 12:23:22;;;;;;;;;;;;;;;;;;4986237;28;20016;-61
2023/09/24 12:25:49;;;;;;;;;;;;;;;;;;4995409;28;19921;-61
2023/09/24 12:28:15;;;;;;;;;;;;;;;;;;5012669;28;19931;-61
2023/09/24 12:30:41;;;;;;;;;;;;;;;;;;5007959;28;19925;-61
2023/09/24 12:33:07;;;;;;;;;;;;;;;;;;5004415;28;20240;-62
2023/09/24 12:35:33;;;;;;;;;;;;;;;;;;5013688;28;19928;-61
2023/09/24 12:37:59;;;;;;;;;;;;;;;;;;5006159;28;19930;-61
2023/09/24 12:40:25;;;;;;;;;;;;;;;;;;5011674;28;19925;-61
2023/09/24 12:42:51;;;;;;;;;;;;;;;;;;5011099;28;19951;-59
2023/09/24 12:45:17;;;;;;;;;;;;;;;;;;5012755;28;19948;-60
2023/09/24 12:47:43;;;;;;;;;;;;;;;;;;5003568;28;20020;-61
2023/09/24 12:50:09;;;;;;;;;;;;;;;;;;5010157;28;20012;-61
2023/09/24 12:52:35;;;;;;;;;;;;;;;;;;5013300;28;19947;-61
2023/09/24 12:55:01;;;;;;;;;;;;;;;;;;5020629;28;19982;-61
2023/09/24 12:57:27;;;;;;;;;;;;;;;;;;5023319;28;20322;-61
2023/09/24 12:59:53;;;;;;;;;;;;;;;;;;5011965;28;19921;-61
2023/09/24 13:02:19;;;;;;;;;;;;;;;;;;5011516;28;20278;-61
2023/09/24 13:04:44;;;;;;;;;;;;;;;;;;5009704;28;20032;-61
2023/09/24 13:07:10;;;;;;;;;;;;;;;;;;5002094;28;19929;-61
2023/09/24 13:09:36;;;;;;;;;;;;;;;;;;5010509;28;19961;-61
2023/09/24 13:12:02;;;;;;;;;;;;;;;;;;5012447;28;19943;-64
2023/09/24 13:14:30;;;;;;;;;;;;;;;;;;5009921;28;19932;-61
2023/09/24 13:16:56;;;;;;;;;;;;;;;;;;5007602;28;19928;-60
2023/09/24 13:19:22;;;;;;;;;;;;;;;;;;5008567;28;19925;-61
2023/09/24 13:21:48;;;;;;;;;;;;;;;;;;5011822;28;19925;-61
2023/09/24 13:24:14;;;;;;;;;;;;;;;;;;5014522;28;19922;-61
2023/09/24 13:26:39;;;;;;;;;;;;;;;;;;5008870;28;20291;-61
2023/09/24 13:29:05;;;;;;;;;;;;;;;;;;5008864;28;19928;-61
2023/09/24 13:31:31;;;;;;;;;;;;;;;;;;5012070;28;19926;-61
2023/09/24 13:33:59;;;;;;;;;;;;;;;;;;5005002;28;20275;-60
2023/09/24 13:36:25;;;;;;;;;;;;;;;;;;5005067;28;19971;-60
2023/09/24 13:38:51;;;;;;;;;;;;;;;;;;5006256;28;19930;-60
2023/09/24 13:41:17;;;;;;;;;;;;;;;;;;5004352;28;19926;-60
2023/09/24 13:43:43;;;;;;;;;;;;;;;;;;5010655;28;19968;-61
2023/09/24 13:46:09;;;;;;;;;;;;;;;;;;5007789;28;19922;-61
2023/09/24 13:48:35;;;;;;;;;;;;;;;;;;5021458;28;19964;-61
2023/09/24 13:51:01;;;;;;;;;;;;;;;;;;5004340;28;19930;-62
2023/09/24 13:53:27;;;;;;;;;;;;;;;;;;5010813;28;20056;-60
2023/09/24 13:55:53;;;;;;;;;;;;;;;;;;5000204;28;20382;-61
2023/09/24 13:58:19;;;;;;;;;;;;;;;;;;5008597;28;19928;-60
2023/09/24 14:00:47;;;;;;;;;;;;;;;;;;5005485;28;19930;-61
2023/09/24 14:03:13;;;;;;;;;;;;;;;;;;5005048;28;20410;-61
2023/09/24 14:05:39;;;;;;;;;;;;;;;;;;5012382;28;20012;-60
2023/09/24 14:13:34;;;;;;;;;;;;;;;;;;5009873;28;19930;-61
2023/09/24 14:16:00;;;;;;;;;;;;;;;;;;5005998;28;19927;-61
2023/09/24 14:18:26;;;;;;;;;;;;;;;;;;5010253;28;19955;-59
2023/09/24 14:20:52;;;;;;;;;;;;;;;;;;5006760;28;19952;-60
2023/09/24 14:23:18;;;;;;;;;;;;;;;;;;5007353;28;20333;-61
2023/09/24 14:25:44;;;;;;;;;;;;;;;;;;5005692;28;20012;-61
2023/09/24 14:28:10;;;;;;;;;;;;;;;;;;5011030;28;19929;-61
2023/09/24 14:30:36;;;;;;;;;;;;;;;;;;5004825;28;19961;-61
2023/09/24 14:33:02;;;;;;;;;;;;;;;;;;5009096;28;19928;-61
2023/09/24 14:35:28;;;;;;;;;;;;;;;;;;5008280;28;19925;-60
2023/09/24 14:37:54;;;;;;;;;;;;;;;;;;5011873;28;20389;-60
2023/09/24 14:40:20;;;;;;;;;;;;;;;;;;5001737;28;20000;-61
2023/09/24 14:42:46;;;;;;;;;;;;;;;;;;5005117;28;20322;-61
2023/09/24 14:45:12;;;;;;;;;;;;;;;;;;5010693;28;19961;-61
2023/09/24 14:47:41;;;;;;;;;;;;;;;;;;5011514;28;19979;-60
2023/09/24 14:50:07;;;;;;;;;;;;;;;;;;5010185;28;19967;-61
2023/09/24 14:52:33;;;;;;;;;;;;;;;;;;5010829;28;19964;-61
2023/09/24 14:54:58;;;;;;;;;;;;;;;;;;5014019;28;19932;-61
2023/09/24 14:57:24;;;;;;;;;;;;;;;;;;5011386;28;19926;-61
2023/09/24 14:59:52;;;;;;;;;;;;;;;;;;5009216;28;19921;-61
2023/09/24 15:02:18;;;;;;;;;;;;;;;;;;4996734;28;19926;-61
2023/09/24 15:04:44;;;;;;;;;;;;;;;;;;5012027;28;19921;-61
2023/09/24 15:07:10;;;;;;;;;;;;;;;;;;5010864;28;19925;-61
2023/09/24 15:09:36;;;;;;;;;;;;;;;;;;5009736;28;19956;-61
2023/09/24 15:12:02;;;;;;;;;;;;;;;;;;5010373;28;20248;-62
2023/09/24 15:14:29;;;;;;;;;;;;;;;;;;5010687;28;20518;-61
2023/09/24 15:16:56;;;;;;;;;;;;;;;;;;5008829;28;19925;-61
2023/09/24 15:19:22;;;;;;;;;;;;;;;;;;5009494;28;20741;-61
2023/09/24 15:21:48;;;;;;;;;;;;;;;;;;5011618;28;19925;-61
2023/09/24 15:24:14;;;;;;;;;;;;;;;;;;5011077;28;19929;-61
2023/09/24 15:26:40;;;;;;;;;;;;;;;;;;5009876;28;19937;-61
2023/09/24 15:29:06;;;;;;;;;;;;;;;;;;5009640;28;20462;-61
2023/09/24 15:31:31;;;;;;;;;;;;;;;;;;5009495;28;19925;-61
2023/09/24 15:33:57;;;;;;;;;;;;;;;;;;5008820;28;19927;-61
2023/09/24 15:36:24;;;;;;;;;;;;;;;;;;5009517;28;19921;-61
2023/09/24 15:38:50;;;;;;;;;;;;;;;;;;5010431;28;20397;-61
2023/09/24 15:41:16;;;;;;;;;;;;;;;;;;5010417;28;19921;-64
2023/09/24 15:43:42;;;;;;;;;;;;;;;;;;5009723;28;19921;-65
2023/09/24 15:46:08;;;;;;;;;;;;;;;;;;5011818;28;19956;-65
2023/09/24 15:48:34;;;;;;;;;;;;;;;;;;5008319;28;20385;-64
2023/09/24 15:51:00;;;;;;;;;;;;;;;;;;5010163;28;20436;-64
2023/09/24 15:53:26;;;;;;;;;;;;;;;;;;5011446;28;19921;-65
2023/09/24 15:55:52;;;;;;;;;;;;;;;;;;5011467;28;20286;-65
2023/09/24 15:58:18;;;;;;;;;;;;;;;;;;5006080;28;19933;-65
2023/09/24 16:00:43;;;;;;;;;;;;;;;;;;5010030;28;19975;-64
2023/09/24 16:03:09;;;;;;;;;;;;;;;;;;5004306;28;19926;-64
2023/09/24 16:05:35;;;;;;;;;;;;;;;;;;5009889;28;19952;-65
2023/09/24 16:08:01;;;;;;;;;;;;;;;;;;5010860;28;19929;-65
2023/09/24 16:10:27;;;;;;;;;;;;;;;;;;5007306;28;19929;-64
2023/09/24 16:12:53;;;;;;;;;;;;;;;;;;5012170;28;19968;-65
2023/09/24 16:15:19;;;;;;;;;;;;;;;;;;5021166;28;20313;-65
2023/09/24 16:17:45;;;;;;;;;;;;;;;;;;5007210;28;19928;-65
2023/09/24 16:20:11;;;;;;;;;;;;;;;;;;5012096;28;19973;-64
2023/09/24 16:22:37;;;;;;;;;;;;;;;;;;5010445;28;19968;-63
2023/09/24 16:25:03;;;;;;;;;;;;;;;;;;5014480;28;19925;-65
2023/09/24 16:27:29;;;;;;;;;;;;;;;;;;5010476;28;20927;-65
2023/09/24 16:29:55;;;;;;;;;;;;;;;;;;5000631;28;19926;-65
2023/09/24 16:32:21;;;;;;;;;;;;;;;;;;5009297;28;19929;-64
2023/09/24 16:34:51;;;;;;;;;;;;;;;;;;5011986;28;20766;-64
2023/09/24 16:37:18;;;;;;;;;;;;;;;;;;5008307;28;19925;-65
2023/09/24 16:39:44;;;;;;;;;;;;;;;;;;5013235;28;19985;-65
2023/09/24 16:42:09;;;;;;;;;;;;;;;;;;5011461;28;19932;-64
2023/09/24 16:44:35;;;;;;;;;;;;;;;;;;5006706;28;19929;-64